Flight Track Log - Related Links

Times and Time Zones

All times are in EDT time to prevent confusion due to time zone crossing. See the UAL271 flight status page for this flight to view local times or setup timezone preferences in your user account.

Time Position Orientation Groundspeed Altitude Reporting Facility
EDT Latitude Longitude Course Direction KTS MPH feet Rate Location/Type
Mon 02:45:15 PM 28.4587 -81.3091 172° South  Level FlightAware Approximate
Mon 02:45:48 PM 28.4000 -81.3000 180° South 174 200 1,000  Level Orlando TRACON
Mon 02:46:36 PM 28.3667 -81.3000 139° Southeast 222 255 2,400 2,389 Climbing Orlando TRACON
Mon 02:47:36 PM 28.3167 -81.2500 74° East 222 255 5,300 2,826 Climbing Orlando TRACON
Mon 02:48:37 PM 28.3333 -81.1833 350° North 260 299 8,100 2,056 Climbing Orlando TRACON
Mon 02:50:34 PM 28.4894 -81.2133 347° North 296 341 11,400 1,797 Climbing Jacksonville Center
Mon 02:51:34 PM 28.5964 -81.2422 346° North 340 391 13,400 2,150 Climbing Jacksonville Center
Mon 02:52:34 PM 28.7031 -81.2736 346° North 372 428 15,700 1,250 Climbing Jacksonville Center
Mon 02:53:34 PM 28.8183 -81.3072 345° North 403 464 15,900 700 Climbing Jacksonville Center
Mon 02:54:34 PM 28.9358 -81.3433 347° North 425 489 17,100 1,350 Climbing Jacksonville Center
Mon 02:55:34 PM 29.0592 -81.3769 351° North 438 504 18,600 1,550 Climbing Jacksonville Center
Mon 02:56:34 PM 29.1847 -81.3989 355° North 444 511 20,200 1,550 Climbing Jacksonville Center
Mon 02:57:34 PM 29.3122 -81.4114 355° North 455 524 21,700 2,050 Climbing Jacksonville Center
Mon 02:58:34 PM 29.4503 -81.4258 355° North 461 531 24,300 1,550 Climbing Jacksonville Center
Mon 02:59:34 PM 29.5775 -81.4383 355° North 456 525 24,800 800 Climbing Jacksonville Center
Mon 03:00:34 PM 29.7114 -81.4506 355° North 466 536 25,900 1,250 Climbing Jacksonville Center
Mon 03:01:34 PM 29.8431 -81.4631 355° North 466 536 27,300 1,450 Climbing Jacksonville Center
Mon 03:02:34 PM 29.9706 -81.4756 355° North 466 536 28,800 1,250 Climbing Jacksonville Center
Mon 03:03:34 PM 30.1022 -81.4881 355° North 466 536 29,800 1,050 Climbing Jacksonville Center
Mon 03:04:34 PM 30.2317 -81.5006 356° North 466 536 30,900 1,200 Climbing Jacksonville Center
Mon 03:05:34 PM 30.3656 -81.5106 North 466 536 32,200 1,200 Climbing Jacksonville Center
Mon 03:06:34 PM 30.4947 -81.4992 North 466 536 33,300 1,100 Climbing Jacksonville Center
Mon 03:07:34 PM 30.6261 -81.4875 North 460 529 34,400 850 Climbing Jacksonville Center
Mon 03:08:34 PM 30.7556 -81.4758 North 460 529 35,000 300 Climbing Jacksonville Center
Mon 03:09:34 PM 30.8850 -81.4644 North 460 529 35,000  Level Jacksonville Center
Mon 03:10:34 PM 31.0036 -81.4506 North 470 541 35,000  Level Jacksonville Center
Mon 03:11:34 PM 31.1331 -81.4339 359° North 470 541 35,000  Level Jacksonville Center
Mon 03:46:52 PM 35.6094 -81.5456 356° North 457 526 35,000  Level Atlanta Center
Mon 03:47:52 PM 35.7244 -81.5550 358° North 462 532 35,000  Level Atlanta Center
Mon 03:48:52 PM 35.8497 -81.5614 356° North 457 526 35,000  Level Atlanta Center
Mon 03:49:52 PM 35.9772 -81.5728 357° North 457 526 35,000  Level Atlanta Center
Mon 03:50:52 PM 36.1172 -81.5814 355° North 462 532 35,000  Level Atlanta Center
Mon 03:51:52 PM 36.2467 -81.5956 356° North 462 532 35,000  Level Atlanta Center
Mon 03:52:52 PM 36.3719 -81.6072 359° North 457 526 35,000  Level Atlanta Center
Mon 03:53:52 PM 36.4994 -81.6111 356° North 462 532 35,000  Level Atlanta Center
Mon 03:55:23 PM 36.6919 -81.6300 357° North 466 536 35,000  Level Indianapolis Center
Mon 03:56:23 PM 36.8194 -81.6397 356° North 461 531 35,000 -50 Level Indianapolis Center
Mon 03:57:23 PM 36.9469 -81.6522 357° North 461 531 34,900  Descending Indianapolis Center
Mon 03:58:23 PM 37.0742 -81.6594 355° North 461 531 35,000 50 Climbing Indianapolis Center
Mon 03:59:23 PM 37.1997 -81.6719 357° North 461 531 35,000  Level Indianapolis Center
Mon 04:00:23 PM 37.3292 -81.6817 355° North 461 531 35,000 -50 Level Indianapolis Center
Mon 04:01:23 PM 37.4544 -81.6942 356° North 461 531 34,900 -50 Descending Indianapolis Center
Mon 04:02:23 PM 37.5819 -81.7042 356° North 461 531 34,900 50 Level Indianapolis Center
Mon 04:03:23 PM 37.7114 -81.7167 356° North 461 531 35,000 50 Climbing Indianapolis Center
Mon 04:04:23 PM 37.8264 -81.7269 356° North 461 531 35,000  Level Indianapolis Center
Mon 04:05:23 PM 37.9494 -81.7369 355° North 461 531 35,000  Level Indianapolis Center
Mon 04:06:23 PM 38.0769 -81.7497 356° North 456 525 35,000  Level Indianapolis Center
Mon 04:07:23 PM 38.2022 -81.7600 356° North 456 525 35,000 -50 Level Indianapolis Center
Mon 04:08:23 PM 38.3275 -81.7700 352° North 456 525 34,900 -400 Descending Indianapolis Center
Mon 04:09:23 PM 38.4511 -81.7908 352° North 451 519 34,200 -450 Descending Indianapolis Center
Mon 04:10:23 PM 38.5889 -81.8142 352° North 451 519 34,000 -100 Descending Indianapolis Center
Mon 04:11:23 PM 38.7186 -81.8375 354° North 451 519 34,000  Level Indianapolis Center
Mon 04:12:23 PM 38.8461 -81.8558 353° North 456 525 34,000 -150 Level Indianapolis Center
Mon 04:13:23 PM 38.9717 -81.8769 355° North 461 531 33,700 -600 Descending Indianapolis Center
Mon 04:14:23 PM 39.0989 -81.8900 356° North 461 531 32,800 -1,000 Descending Indianapolis Center
Mon 04:15:23 PM 39.2283 -81.9006 357° North 461 531 31,700 -1,400 Descending Indianapolis Center
Mon 04:16:23 PM 39.3600 -81.9108 356° North 461 531 30,000 -1,700 Descending Indianapolis Center
Mon 04:17:23 PM 39.4894 -81.9239 356° North 466 536 28,300 -1,650 Descending Indianapolis Center
Mon 04:18:23 PM 39.6167 -81.9344 356° North 460 529 26,700 -1,600 Descending Indianapolis Center
Mon 04:19:23 PM 39.7439 -81.9450 356° North 460 529 25,100 -1,650 Descending Indianapolis Center
Mon 04:20:23 PM 39.8650 -81.9558 355° North 453 521 23,400 -1,650 Descending Indianapolis Center
Mon 04:21:23 PM 39.9903 -81.9692 357° North 448 516 21,800 -1,700 Descending Indianapolis Center
Mon 04:22:23 PM 40.1175 -81.9772 356° North 448 516 20,000 -1,655 Descending Indianapolis Center
Mon 04:23:48 PM 40.2836 -81.9928 356° North 459 528 17,800 -1,655 Descending Cleveland Center
Mon 04:24:48 PM 40.4189 -82.0039 356° North 449 517 16,000 -1,450 Descending Cleveland Center
Mon 04:25:48 PM 40.5375 -82.0147 27° Northeast 432 497 14,900 -700 Descending Cleveland Center
Mon 04:26:48 PM 40.6447 -81.9431 39° Northeast 409 471 14,600 -791 Descending Cleveland Center
Mon 04:27:19 PM 40.6997 -81.8839 37° Northeast 453 521 13,700 -1,674 Descending Cleveland Center
Mon 04:28:14 PM 40.7819 -81.8033 37° Northeast 416 479 12,200 -1,551 Descending Cleveland Center
Mon 04:28:48 PM 40.8197 -81.7656 27° Northeast 414 476 11,400 -1,404 Descending Cleveland Center
Mon 04:29:48 PM 40.9100 -81.7042 North 382 440 10,000 -700 Descending Cleveland Center
Mon 04:30:48 PM 41.0103 -81.6975 353° North 350 403 10,000 -250 Level Cleveland Center
Mon 04:31:48 PM 41.0997 -81.7128 350° North 329 379 9,500 -1,080 Descending Cleveland Center
Mon 04:32:28 PM 41.1622 -81.7278 348° North 295 339 8,200 -1,485 Descending Cleveland Center
Mon 04:33:29 PM 41.2431 -81.7511 350° North 294 338 7,000 -563 Descending Cleveland Center
Mon 04:34:36 PM 41.3306 -81.7722 26° Northeast 295 339 7,000 -545 Level Cleveland Center
Mon 04:35:30 PM 41.3956 -81.7292 39° Northeast 311 358 5,900 -1,357 Descending Cleveland Center
Mon 04:36:31 PM 41.4631 -81.6556 39° Northeast 297 342 4,400 -1,475 Descending Cleveland Center

Login

Don't have an account? Register now (free) for customized features, flight alerts, and more!